Time;durP1;ratioP1;P1;durP2;ratioP2;P2;SDS_P1;SDS_P2;PMS_P1;PMS_P2;Temp;Humidity;BMP_temperature;BMP_pressure;BME280_temperature;BME280_humidity;BME280_pressure;Samples;Min_cycle;Max_cycle;Signal;HPM_P1;HPM_P2
2023/09/25 00:01:24;;;;;;;6.97;3.10;;;;;;;22.23;44.67;101425.97;5095593;28;20047;-49
2023/09/25 00:03:52;;;;;;;6.85;3.17;;;;;;;22.23;44.62;101421.19;5095778;28;20044;-49
2023/09/25 00:06:19;;;;;;;5.18;2.80;;;;;;;22.20;44.79;101421.94;5094992;28;20683;-48
2023/09/25 00:08:46;;;;;;;6.82;2.78;;;;;;;22.20;44.57;101424.75;5095161;28;20059;-49
2023/09/25 00:11:14;;;;;;;7.03;3.00;;;;;;;22.22;44.51;101428.00;5095010;28;20047;-51
2023/09/25 00:13:41;;;;;;;7.53;3.13;;;;;;;22.20;44.60;101429.53;5095063;28;20044;-48
2023/09/25 00:16:13;;;;;;;6.88;3.28;;;;;;;22.17;44.86;101433.94;5094740;28;20843;-46
2023/09/25 00:18:41;;;;;;;5.32;3.10;;;;;;;22.13;44.89;101432.22;5077578;28;20039;-48
2023/09/25 00:21:09;;;;;;;4.97;2.67;;;;;;;22.10;45.23;101428.19;5095300;28;20044;-47
2023/09/25 00:23:36;;;;;;;5.20;2.67;;;;;;;22.10;44.95;101433.81;5095602;28;20048;-49
2023/09/25 00:26:04;;;;;;;6.70;2.92;;;;;;;22.08;45.15;101438.97;5060641;28;20044;-53
2023/09/25 00:28:32;;;;;;;6.07;2.80;;;;;;;22.08;45.29;101433.38;5094498;28;20067;-49
2023/09/25 00:30:59;;;;;;;6.78;2.75;;;;;;;22.07;45.41;101434.53;5055875;28;20052;-50
2023/09/25 00:33:27;;;;;;;5.40;2.88;;;;;;;22.06;45.36;101435.72;5095363;28;20044;-51
2023/09/25 00:35:55;;;;;;;8.10;3.00;;;;;;;22.04;45.44;101437.28;5095115;28;20040;-51
2023/09/25 00:38:22;;;;;;;5.70;3.00;;;;;;;22.05;45.26;101434.13;5076227;28;20058;-51
2023/09/25 00:40:50;;;;;;;6.63;3.20;;;;;;;22.05;45.32;101433.28;5075069;28;20052;-52
2023/09/25 00:43:17;;;;;;;6.20;3.03;;;;;;;22.05;45.35;101424.88;5093426;28;20523;-50
2023/09/25 00:45:46;;;;;;;6.47;2.95;;;;;;;22.03;45.68;101425.25;5075812;28;20043;-51
2023/09/25 00:48:26;;;;;;;8.38;3.35;;;;;;;22.02;45.42;101426.41;5088531;28;20056;-52
2023/09/25 00:50:56;;;;;;;5.93;2.92;;;;;;;22.02;45.52;101420.03;5092678;28;20047;-52
2023/09/25 00:53:26;;;;;;;5.75;2.72;;;;;;;22.02;45.78;101422.81;5059613;28;20044;-52
2023/09/25 00:55:53;;;;;;;6.47;3.20;;;;;;;22.01;45.82;101422.00;5076012;28;20044;-52
2023/09/25 00:58:21;;;;;;;5.22;2.78;;;;;;;22.01;45.91;101424.00;5076223;28;20063;-48
2023/09/25 01:00:48;;;;;;;6.53;2.88;;;;;;;22.00;45.49;101414.75;5086979;28;20052;-48
2023/09/25 01:03:16;;;;;;;6.55;2.80;;;;;;;21.98;45.74;101419.13;5071916;28;20084;-48
2023/09/25 01:05:43;;;;;;;5.13;2.70;;;;;;;22.01;45.67;101418.38;5093110;28;20052;-49
2023/09/25 01:08:12;;;;;;;7.65;2.78;;;;;;;22.05;45.48;101413.66;5089551;28;20051;-51
2023/09/25 01:10:40;;;;;;;5.55;2.60;;;;;;;22.08;45.85;101402.50;5094376;28;20055;-45
2023/09/25 01:13:09;;;;;;;6.38;2.72;;;;;;;22.10;45.54;101414.16;5090635;28;20692;-52
2023/09/25 01:15:38;;;;;;;6.20;2.95;;;;;;;22.11;45.55;101412.97;5076419;28;20059;-47
2023/09/25 01:18:08;;;;;;;6.07;2.97;;;;;;;22.12;45.33;101419.38;5086813;28;20044;-50
2023/09/25 01:20:36;;;;;;;5.30;2.77;;;;;;;22.13;45.69;101409.78;5068532;28;20064;-49
2023/09/25 01:23:03;;;;;;;5.30;2.50;;;;;;;22.12;45.68;101411.75;5071608;28;20044;-47
2023/09/25 01:25:31;;;;;;;4.88;2.67;;;;;;;22.12;45.49;101403.34;5093047;28;20055;-50
2023/09/25 01:27:58;;;;;;;5.43;2.78;;;;;;;22.12;45.69;101403.34;5075126;28;20059;-46
2023/09/25 01:30:29;;;;;;;6.03;3.00;;;;;;;22.12;45.88;101420.19;5087900;28;20048;-49
2023/09/25 01:32:57;;;;;;;5.90;2.67;;;;;;;22.11;45.74;101415.78;5069703;28;20043;-49
2023/09/25 01:35:26;;;;;;;6.85;3.00;;;;;;;22.07;45.78;101422.50;5071301;28;20044;-50
2023/09/25 01:37:58;;;;;;;5.57;2.92;;;;;;;22.04;46.15;101418.44;5075361;28;20066;-50
2023/09/25 01:40:26;;;;;;;6.72;2.90;;;;;;;22.03;46.08;101418.81;5074932;28;20070;-51
2023/09/25 01:42:53;;;;;;;5.40;2.80;;;;;;;22.00;46.25;101425.97;5093122;28;20055;-48
2023/09/25 01:45:21;;;;;;;5.93;2.88;;;;;;;21.98;46.31;101416.34;5074936;28;20059;-49
2023/09/25 01:47:50;;;;;;;5.80;2.90;;;;;;;21.97;46.32;101423.94;5093636;28;20044;-46
2023/09/25 01:50:23;;;;;;;5.85;2.70;;;;;;;21.97;46.50;101418.31;5093136;28;20052;-44
2023/09/25 01:52:56;;;;;;;5.45;2.63;;;;;;;21.97;46.62;101411.88;5079652;28;20039;-51
2023/09/25 01:55:35;;;;;;;7.72;3.20;;;;;;;21.96;46.55;101411.09;5093571;28;20052;-47
2023/09/25 01:58:03;;;;;;;6.72;2.60;;;;;;;21.97;46.59;101417.50;5071832;28;20535;-48
2023/09/25 02:00:31;;;;;;;6.85;2.83;;;;;;;21.95;46.49;101405.88;5055543;28;20060;-48
2023/09/25 02:02:58;;;;;;;6.13;2.80;;;;;;;21.96;46.39;101405.50;5090141;28;20048;-52
2023/09/25 02:05:26;;;;;;;5.00;2.78;;;;;;;21.96;46.42;101401.88;5093331;28;20044;-49
2023/09/25 02:07:53;;;;;;;5.85;2.58;;;;;;;21.94;46.56;101402.25;5071741;28;20055;-48
2023/09/25 02:10:21;;;;;;;4.90;2.33;;;;;;;21.94;46.46;101412.66;5073160;28;20044;-47
2023/09/25 02:12:49;;;;;;;5.38;2.42;;;;;;;21.93;46.72;101402.63;5073209;28;20052;-45
2023/09/25 02:15:16;;;;;;;6.07;3.03;;;;;;;21.92;46.96;101398.19;5084267;28;20050;-47
2023/09/25 02:17:44;;;;;;;4.50;2.53;;;;;;;21.93;46.76;101400.59;5071961;28;20055;-48
2023/09/25 02:20:17;;;;;;;5.45;2.50;;;;;;;21.93;46.58;101400.59;5085347;28;20059;-46
2023/09/25 02:22:50;;;;;;;6.55;2.70;;;;;;;21.94;46.41;101402.25;5066811;28;20044;-48
2023/09/25 02:25:18;;;;;;;5.88;2.30;;;;;;;21.93;46.52;101397.00;5074658;28;20052;-47
2023/09/25 02:27:46;;;;;;;6.00;3.08;;;;;;;22.00;46.16;101397.94;5070866;28;20534;-47
2023/09/25 02:30:14;;;;;;;7.18;2.97;;;;;;;22.02;46.35;101395.56;5074742;28;20063;-47
2023/09/25 02:32:43;;;;;;;6.40;2.67;;;;;;;22.06;46.22;101412.47;5073423;28;20044;-49
2023/09/25 02:35:11;;;;;;;6.10;3.05;;;;;;;22.05;45.96;101408.03;5073205;28;20044;-47
2023/09/25 02:37:40;;;;;;;6.63;2.95;;;;;;;22.04;46.07;101404.41;5092772;28;20047;-47
2023/09/25 02:40:14;;;;;;;6.07;3.15;;;;;;;22.02;46.13;101400.38;5074809;28;20055;-46
2023/09/25 02:42:45;;;;;;;5.93;2.80;;;;;;;22.03;46.07;101396.38;5075585;28;20063;-46
2023/09/25 02:45:14;;;;;;;6.20;3.00;;;;;;;22.01;46.15;101399.56;5092508;28;20063;-46
2023/09/25 02:47:42;;;;;;;8.02;2.95;;;;;;;22.03;45.97;101385.97;5092739;28;20048;-45
2023/09/25 02:50:10;;;;;;;5.57;2.95;;;;;;;22.03;46.22;101394.41;5092895;28;20044;-50
2023/09/25 02:52:38;;;;;;;6.07;2.97;;;;;;;22.00;45.98;101392.31;5092546;28;20044;-47
2023/09/25 02:55:07;;;;;;;4.68;2.30;;;;;;;21.96;46.20;101388.66;5074762;28;20415;-52
2023/09/25 02:57:34;;;;;;;7.47;2.78;;;;;;;21.96;46.44;101399.88;5092637;28;20268;-46
2023/09/25 03:00:08;;;;;;;7.03;2.90;;;;;;;21.94;46.18;101396.63;5050558;28;20052;-48
2023/09/25 03:02:36;;;;;;;4.85;2.33;;;;;;;21.92;46.41;101401.81;5090020;28;20438;-52
2023/09/25 03:05:05;;;;;;;4.80;2.90;;;;;;;21.93;46.12;101399.81;5092921;28;20115;-48
2023/09/25 03:07:34;;;;;;;7.13;2.72;;;;;;;21.91;46.36;101405.81;5073716;28;20052;-46
2023/09/25 03:10:01;;;;;;;6.35;2.65;;;;;;;21.89;46.18;101405.34;5096128;28;20048;-46
2023/09/25 03:12:29;;;;;;;7.28;3.15;;;;;;;;;;5077949;28;20048;-46
2023/09/25 03:14:56;;;;;;;6.72;2.60;;;;;;;21.83;46.47;101398.41;5077527;28;20063;-51
2023/09/25 03:17:24;;;;;;;6.25;2.72;;;;;;;;;;5096250;28;20048;-47
2023/09/25 03:19:52;;;;;;;4.90;2.60;;;;;;;21.85;46.60;101410.09;5096508;28;20052;-47
2023/09/25 03:22:19;;;;;;;6.03;2.53;;;;;;;21.88;46.50;101417.75;5078545;28;20059;-50
2023/09/25 03:24:48;;;;;;;6.18;2.75;;;;;;;21.86;46.44;101414.50;5096999;28;20048;-49
2023/09/25 03:27:16;;;;;;;5.07;2.60;;;;;;;21.84;46.34;101408.47;5096218;28;20052;-46
2023/09/25 03:29:44;;;;;;;5.78;2.80;;;;;;;21.83;46.33;101404.03;5096244;28;20394;-49
2023/09/25 03:32:12;;;;;;;5.78;2.72;;;;;;;21.85;46.50;101409.25;5077338;28;20036;-51
2023/09/25 03:34:40;;;;;;;4.68;2.40;;;;;;;21.85;46.48;101410.09;5091460;28;20044;-51
2023/09/25 03:37:07;;;;;;;5.45;3.15;;;;;;;21.83;46.72;101415.25;5074227;28;20067;-54
2023/09/25 03:39:37;;;;;;;6.60;2.80;;;;;;;21.79;46.56;101417.16;5077427;28;20059;-53
2023/09/25 03:42:04;;;;;;;7.68;3.00;;;;;;;21.81;46.57;101428.84;5061241;28;20585;-52
2023/09/25 03:44:31;;;;;;;7.38;2.63;;;;;;;21.83;46.50;101422.84;5096124;28;20051;-50
2023/09/25 03:46:59;;;;;;;6.75;2.88;;;;;;;21.86;46.64;101428.53;5095961;28;20074;-52
2023/09/25 03:49:27;;;;;;;5.80;3.22;;;;;;;21.91;46.20;101433.84;5096091;28;20048;-50
2023/09/25 03:51:54;;;;;;;6.13;2.97;;;;;;;21.92;46.19;101431.84;5059340;28;20733;-50
2023/09/25 03:54:21;;;;;;;6.47;2.70;;;;;;;21.93;46.25;101420.25;5057137;28;20056;-52
2023/09/25 03:56:49;;;;;;;6.07;2.58;;;;;;;21.94;46.18;101416.28;5077224;28;20051;-50
2023/09/25 03:59:16;;;;;;;7.22;3.10;;;;;;;21.93;46.34;101417.44;5095837;28;20051;-48
2023/09/25 04:01:44;;;;;;;5.97;2.63;;;;;;;21.95;46.27;101426.28;5078045;28;20410;-48
2023/09/25 04:04:11;;;;;;;4.25;2.40;;;;;;;21.96;46.38;101429.91;5095748;28;20665;-53
2023/09/25 04:06:39;;;;;;;4.45;2.38;;;;;;;21.94;46.18;101430.28;5095698;28;20052;-52
2023/09/25 04:09:07;;;;;;;15.98;3.20;;;;;;;21.96;46.04;101435.53;5094984;28;20048;-54
2023/09/25 04:11:34;;;;;;;5.82;2.58;;;;;;;21.93;46.73;101439.09;5093936;28;20059;-50
2023/09/25 04:14:02;;;;;;;6.47;2.60;;;;;;;21.90;46.62;101440.63;5093462;28;20032;-50
2023/09/25 04:16:33;;;;;;;6.00;2.80;;;;;;;21.87;46.72;101451.78;5094899;28;20040;-50
2023/09/25 04:19:04;;;;;;;5.57;2.63;;;;;;;21.86;46.89;101448.16;5077811;28;20055;-52
2023/09/25 04:21:32;;;;;;;7.50;2.90;;;;;;;21.85;46.93;101449.34;5077900;28;20056;-51
2023/09/25 04:24:01;;;;;;;5.30;2.80;;;;;;;21.83;46.74;101445.28;5094238;28;20047;-52
2023/09/25 04:26:29;;;;;;;6.10;2.83;;;;;;;21.83;47.20;101445.28;5093728;28;20055;-52
2023/09/25 04:28:57;;;;;;;5.53;2.80;;;;;;;21.82;47.08;101443.69;5074162;28;20067;-52
2023/09/25 04:31:24;;;;;;;5.32;2.67;;;;;;;21.81;46.87;101440.06;5077591;28;20059;-48
2023/09/25 04:33:52;;;;;;;6.47;2.50;;;;;;;21.82;47.02;101454.91;5075067;28;20062;-53
2023/09/25 04:36:19;;;;;;;6.75;2.47;;;;;;;21.81;46.77;101445.66;5094993;28;20054;-50
2023/09/25 04:38:46;;;;;;;5.18;2.55;;;;;;;21.80;46.87;101443.22;5087833;28;20576;-48
2023/09/25 04:41:14;;;;;;;6.03;2.80;;;;;;;21.80;47.14;101438.44;5095517;28;20052;-48
2023/09/25 04:43:41;;;;;;;7.18;2.83;;;;;;;21.79;47.09;101450.81;5095131;28;20047;-51
2023/09/25 04:46:10;;;;;;;6.05;3.05;;;;;;;21.79;47.00;101436.00;5076189;28;20040;-54
2023/09/25 04:48:38;;;;;;;5.85;2.90;;;;;;;21.80;47.17;101441.25;5077853;28;20058;-49
2023/09/25 04:51:06;;;;;;;5.55;2.72;;;;;;;21.79;46.98;101438.81;5094924;28;20059;-50
2023/09/25 04:53:33;;;;;;;5.97;2.90;;;;;;;21.79;47.16;101442.41;5070621;28;20047;-48
2023/09/25 04:56:00;;;;;;;5.18;2.80;;;;;;;21.76;47.01;101453.56;5094610;28;20040;-48
2023/09/25 04:58:28;;;;;;;4.88;2.70;;;;;;;21.78;47.20;101460.44;5087929;28;20056;-46
2023/09/25 05:00:55;;;;;;;5.75;2.80;;;;;;;21.77;46.96;101469.19;5089512;28;20040;-47
2023/09/25 05:03:23;;;;;;;8.52;2.92;;;;;;;21.78;47.05;101462.41;5092461;28;20040;-49
2023/09/25 05:05:50;;;;;;;5.85;2.83;;;;;;;21.89;46.92;101471.88;5090764;28;20035;-45
2023/09/25 05:08:18;;;;;;;7.38;2.80;;;;;;;21.98;45.99;101467.66;5092142;28;20048;-52
2023/09/25 05:10:45;;;;;;;8.23;3.17;;;;;;;22.04;46.17;101468.94;5073442;28;20219;-49
2023/09/25 05:13:13;;;;;;;6.03;2.95;;;;;;;22.07;45.94;101462.59;5076634;28;20047;-49
2023/09/25 05:15:40;;;;;;;5.43;2.72;;;;;;;22.08;46.05;101461.41;5094285;28;20048;-49
2023/09/25 05:18:07;;;;;;;6.38;2.90;;;;;;;22.10;45.76;101466.66;5094583;28;20048;-48
2023/09/25 05:20:35;;;;;;;7.07;2.88;;;;;;;22.11;45.92;101473.88;5076006;28;20063;-53
2023/09/25 05:23:02;;;;;;;8.25;2.88;;;;;;;22.10;45.78;101470.28;5073677;28;20048;-50
2023/09/25 05:25:30;;;;;;;5.70;2.58;;;;;;;22.10;45.77;101467.47;5087874;28;20044;-50
2023/09/25 05:27:58;;;;;;;5.85;2.95;;;;;;;22.10;45.83;101473.09;5094330;28;20172;-48
2023/09/25 05:30:25;;;;;;;6.20;2.90;;;;;;;22.06;45.77;101460.97;5093304;28;20048;-50
2023/09/25 05:32:53;;;;;;;6.93;2.65;;;;;;;22.00;46.17;101456.84;5093018;28;20068;-48
2023/09/25 05:35:21;;;;;;;7.25;3.15;;;;;;;22.00;46.15;101467.28;5088380;28;20052;-48
2023/09/25 05:37:48;;;;;;;5.35;2.78;;;;;;;21.97;46.14;101466.00;5093904;28;20040;-51
2023/09/25 05:40:18;;;;;;;10.00;3.22;;;;;;;21.97;46.09;101466.00;5092889;28;20059;-50
2023/09/25 05:42:47;;;;;;;8.35;2.90;;;;;;;21.97;46.06;101468.00;5093922;28;20533;-49
2023/09/25 05:45:17;;;;;;;7.45;2.78;;;;;;;21.96;46.11;101470.00;5093200;28;20039;-50
2023/09/25 05:47:47;;;;;;;6.10;2.95;;;;;;;21.97;46.12;101473.59;5093303;28;20047;-46
2023/09/25 05:50:15;;;;;;;6.75;2.72;;;;;;;21.96;46.08;101475.63;5092125;28;20082;-44
2023/09/25 05:52:42;;;;;;;6.10;3.33;;;;;;;21.96;46.26;101480.41;5070585;28;20060;-48
2023/09/25 05:55:12;;;;;;;9.70;3.67;;;;;;;21.94;46.05;101486.41;5089715;28;20044;-48
2023/09/25 05:57:41;;;;;;;7.53;3.20;;;;;;;21.88;46.42;101487.09;5091963;28;20044;-51
2023/09/25 06:00:16;;;;;;;5.75;3.28;;;;;;;21.82;46.57;101488.56;5089864;28;20043;-51
2023/09/25 06:02:46;;;;;;;7.03;3.03;;;;;;;21.78;46.29;101499.69;5093379;28;20058;-48
2023/09/25 06:05:13;;;;;;;7.75;2.97;;;;;;;21.77;46.32;101488.81;5074988;28;20040;-47
2023/09/25 06:07:42;;;;;;;7.68;3.10;;;;;;;21.77;46.26;101495.25;5073892;28;20044;-47
2023/09/25 06:10:10;;;;;;;5.53;2.95;;;;;;;21.81;46.66;101492.56;5073875;28;20046;-48
2023/09/25 06:12:39;;;;;;;8.55;3.85;;;;;;;21.80;46.83;101493.72;5090444;28;20047;-49
2023/09/25 06:15:11;;;;;;;7.93;3.75;;;;;;;21.80;47.02;101497.34;5089132;28;20534;-53
2023/09/25 06:17:39;;;;;;;11.85;3.90;;;;;;;21.81;47.57;101503.78;5093422;28;20410;-49
2023/09/25 06:20:15;;;;;;;6.93;3.45;;;;;;;21.80;48.92;101502.13;5073493;28;20047;-49
2023/09/25 06:22:44;;;;;;;10.52;4.18;;;;;;;21.90;51.06;101496.72;5092666;28;20051;-50
2023/09/25 06:25:17;;;;;;;9.25;4.05;;;;;;;22.02;52.11;101502.19;5093108;28;20053;-51
2023/09/25 06:27:46;;;;;;;9.20;3.80;;;;;;;22.06;49.95;101503.06;5075551;28;20036;-48
2023/09/25 06:30:16;;;;;;;7.43;3.53;;;;;;;22.11;49.31;101499.94;5073958;28;20054;-49
2023/09/25 06:32:43;;;;;;;6.35;3.80;;;;;;;22.12;49.34;101500.78;5090294;28;20056;-50
2023/09/25 06:35:12;;;;;;;6.55;3.47;;;;;;;22.12;49.12;101503.56;5085696;28;20049;-51
2023/09/25 06:37:40;;;;;;;7.10;3.60;;;;;;;22.12;48.46;101501.56;5096520;28;20059;-47
2023/09/25 06:40:10;;;;;;;7.60;4.13;;;;;;;22.12;48.72;101500.78;5087058;28;20063;-49
2023/09/25 06:42:38;;;;;;;8.07;4.00;;;;;;;22.12;48.19;101498.75;5070704;28;20044;-51
2023/09/25 06:45:07;;;;;;;9.73;4.07;;;;;;;22.12;48.20;101507.19;5067495;28;20048;-50
2023/09/25 06:47:34;;;;;;;7.78;3.60;;;;;;;22.13;47.93;101505.19;5072997;28;20041;-47
2023/09/25 06:50:03;;;;;;;9.48;4.10;;;;;;;22.09;47.90;101501.50;5069102;28;20063;-47
2023/09/25 06:52:30;;;;;;;10.68;4.45;;;;;;;22.01;48.18;101516.59;5072031;28;20068;-52
2023/09/25 06:54:58;;;;;;;7.78;4.07;;;;;;;21.98;48.09;101509.75;5067480;28;20057;-48
2023/09/25 06:57:25;;;;;;;11.73;3.55;;;;;;;21.93;47.88;101504.41;5070747;28;20052;-47
2023/09/25 06:59:53;;;;;;;9.57;4.43;;;;;;;21.92;47.73;101511.22;5069747;28;20040;-48
2023/09/25 07:02:20;;;;;;;7.25;3.50;;;;;;;21.91;48.30;101503.97;5071772;28;20052;-46
2023/09/25 07:04:48;;;;;;;14.32;3.95;;;;;;;21.95;48.28;101513.25;5063739;28;20426;-49
2023/09/25 07:07:16;;;;;;;8.25;3.65;;;;;;;21.97;49.27;101513.72;5067157;28;20055;-48
2023/09/25 07:09:43;;;;;;;8.77;3.83;;;;;;;22.07;48.32;101517.91;5068814;28;20055;-44
2023/09/25 07:12:15;;;;;;;20.45;4.97;;;;;;;22.06;48.33;101521.88;5068121;28;20511;-49
2023/09/25 07:14:56;;;;;;;11.82;4.50;;;;;;;21.92;48.87;101519.63;5081568;28;20044;-49
2023/09/25 07:17:24;;;;;;;13.55;4.50;;;;;;;20.93;51.20;101530.59;5065178;28;20052;-52
2023/09/25 07:19:52;;;;;;;9.38;4.10;;;;;;;18.98;52.46;101544.97;5064697;28;20525;-46
2023/09/25 07:22:22;;;;;;;12.88;4.15;;;;;;;19.05;52.91;101538.78;5059679;28;20051;-43
2023/09/25 07:24:50;;;;;;;;;;;;;;;17.87;55.62;101540.66;5060635;28;20059;-43
2023/09/25 07:27:18;;;;;;;16.10;3.72;;;;;;;17.18;58.81;101547.91;5066811;28;19931;-49
2023/09/25 07:29:46;;;;;;;8.60;3.80;;;;;;;17.14;59.55;101548.94;5061844;28;20045;-45
2023/09/25 07:32:15;;;;;;;11.80;4.22;;;;;;;18.24;61.48;101535.19;5062841;28;20048;-42
2023/09/25 07:34:43;;;;;;;12.65;3.70;;;;;;;17.98;56.86;101539.06;5065466;28;20538;-48
2023/09/25 07:37:12;;;;;;;13.80;4.00;;;;;;;17.77;57.69;101535.50;5059781;28;20037;-47
2023/09/25 07:39:42;;;;;;;11.30;3.88;;;;;;;19.24;56.02;101532.59;5065270;28;20048;-45
2023/09/25 07:42:11;;;;;;;8.50;3.60;;;;;;;19.12;54.53;101532.59;5065949;28;20048;-46
2023/09/25 07:44:38;;;;;;;7.10;3.42;;;;;;;18.50;57.70;101542.13;5065806;28;20052;-51
2023/09/25 07:47:12;;;;;;;7.85;3.50;;;;;;;20.17;53.64;101547.00;5053008;28;20045;-47
2023/09/25 07:49:45;;;;;;;11.40;3.45;;;;;;;21.03;50.45;101534.84;5064355;28;20051;-47
2023/09/25 07:52:17;;;;;;;9.75;3.58;;;;;;;21.44;49.35;101539.00;5066555;28;20403;-49
2023/09/25 07:54:45;;;;;;;9.85;3.10;;;;;;;21.62;48.34;101529.78;5044615;28;20152;-47
2023/09/25 07:57:14;;;;;;;8.23;3.17;;;;;;;21.75;47.97;101534.06;5065982;28;20049;-49
2023/09/25 07:59:42;;;;;;;6.85;2.80;;;;;;;21.82;47.81;101530.63;5075809;28;20081;-48
2023/09/25 08:02:11;;;;;;;9.55;3.65;;;;;;;21.89;47.94;101523.19;5053226;28;20048;-45
2023/09/25 08:04:39;;;;;;;10.65;3.20;;;;;;;21.87;47.82;101527.53;5062568;28;20764;-47
2023/09/25 08:07:06;;;;;;;8.05;3.08;;;;;;;21.87;48.11;101525.53;5066583;28;20495;-48
2023/09/25 08:09:35;;;;;;;8.43;3.10;;;;;;;21.86;48.02;101535.13;5063517;28;20053;-49
2023/09/25 08:12:03;;;;;;;10.02;4.00;;;;;;;21.88;47.70;101532.75;5058706;28;20513;-49
2023/09/25 08:14:31;;;;;;;6.07;2.90;;;;;;;21.88;47.96;101537.56;5057876;28;20048;-55
2023/09/25 08:16:58;;;;;;;8.60;2.83;;;;;;;;;;5065329;28;20037;-49
2023/09/25 08:19:26;;;;;;;5.45;2.72;;;;;;;21.90;47.52;101547.22;5067359;28;20064;-48
2023/09/25 08:21:53;;;;;;;8.35;3.30;;;;;;;21.92;47.48;101547.69;5066568;28;20060;-50
2023/09/25 08:24:20;;;;;;;9.05;3.72;;;;;;;21.96;47.59;101548.56;5063506;28;20576;-51
2023/09/25 08:26:48;;;;;;;10.98;3.38;;;;;;;21.97;47.51;101541.75;5049403;28;20053;-51
2023/09/25 08:29:16;;;;;;;7.72;2.97;;;;;;;21.98;47.62;101549.00;5057506;28;20053;-51
2023/09/25 08:31:44;;;;;;;10.27;2.95;;;;;;;22.01;47.61;101547.44;5060083;28;20075;-52
2023/09/25 08:34:11;;;;;;;8.52;3.25;;;;;;;22.02;47.74;101541.47;5061772;28;20068;-53
2023/09/25 08:36:39;;;;;;;7.60;2.90;;;;;;;22.06;47.36;101538.72;5067978;28;20063;-52
2023/09/25 08:39:10;;;;;;;9.25;3.38;;;;;;;22.07;47.32;101535.53;5059362;28;20056;-49
2023/09/25 08:41:39;;;;;;;14.45;3.33;;;;;;;22.05;47.52;101532.31;5067965;28;20406;-53
2023/09/25 08:44:09;;;;;;;8.27;3.30;;;;;;;22.06;47.83;101525.50;5071503;28;20048;-50
2023/09/25 08:46:36;;;;;;;6.83;2.97;;;;;;;22.07;47.94;101537.56;5070785;28;20477;-50
2023/09/25 08:49:04;;;;;;;8.07;3.13;;;;;;;22.10;47.53;101528.38;5096324;28;20286;-52
2023/09/25 08:51:35;;;;;;;10.77;3.58;;;;;;;22.11;47.68;101536.44;5064719;28;20467;-49
2023/09/25 08:54:03;;;;;;;7.50;2.88;;;;;;;22.13;47.75;101533.25;5082241;28;20077;-51
2023/09/25 08:56:34;;;;;;;8.82;3.05;;;;;;;22.01;48.04;101544.63;5092020;28;20036;-49
2023/09/25 08:59:05;;;;;;;10.20;3.08;;;;;;;21.98;48.66;101543.41;5075792;28;20048;-50
2023/09/25 09:01:34;;;;;;;7.90;2.90;;;;;;;22.11;48.18;101532.81;5105035;28;20386;-51
2023/09/25 09:04:02;;;;;;;8.57;3.28;;;;;;;22.21;48.28;101538.63;5082278;28;20044;-48
2023/09/25 09:06:30;;;;;;;8.13;2.88;;;;;;;22.28;48.23;101537.97;5090864;28;20039;-52
2023/09/25 09:08:57;;;;;;;7.97;2.60;;;;;;;22.30;48.15;101544.81;5080315;28;20407;-52
2023/09/25 09:11:24;;;;;;;9.88;3.05;;;;;;;22.27;48.65;101545.56;5068389;28;20154;-53
2023/09/25 09:13:53;;;;;;;9.15;3.25;;;;;;;22.32;48.47;101542.44;5083212;28;20055;-48
2023/09/25 09:16:20;;;;;;;6.78;3.05;;;;;;;22.39;48.87;101541.75;5082665;28;20062;-52
2023/09/25 09:18:48;;;;;;;6.97;2.67;;;;;;;22.43;48.73;101550.25;5089103;28;20048;-49
2023/09/25 09:21:24;;;;;;;8.60;2.83;;;;;;;22.44;48.69;101554.69;5089083;28;20048;-51
2023/09/25 09:23:57;;;;;;;5.97;2.80;;;;;;;22.41;48.89;101561.03;5090947;28;20043;-51
2023/09/25 09:26:25;;;;;;;9.38;3.08;;;;;;;22.31;48.59;101551.25;5071683;28;20052;-51
2023/09/25 09:28:55;;;;;;;7.60;2.58;;;;;;;22.23;49.21;101563.50;5087242;28;20051;-49
2023/09/25 09:31:22;;;;;;;8.02;3.05;;;;;;;22.26;48.67;101560.78;5079195;28;20044;-51
2023/09/25 09:33:53;;;;;;;7.68;3.10;;;;;;;22.30;48.75;101556.03;5064164;28;20044;-53
2023/09/25 09:36:21;;;;;;;8.85;2.70;;;;;;;22.30;48.78;101560.84;5066813;28;20067;-52
2023/09/25 09:38:52;;;;;;;8.77;3.05;;;;;;;22.33;48.58;101565.72;5091177;28;20052;-49
2023/09/25 09:41:19;;;;;;;8.77;3.05;;;;;;;22.33;48.42;101571.34;5097365;28;20059;-50
2023/09/25 09:43:47;;;;;;;7.93;3.58;;;;;;;22.37;48.81;101568.59;5068416;28;20055;-51
2023/09/25 09:46:15;;;;;;;12.82;3.13;;;;;;;22.33;48.34;101563.72;5086851;28;20057;-52
2023/09/25 09:48:46;;;;;;;7.38;2.78;;;;;;;22.34;48.53;101567.34;5072645;28;20063;-54
2023/09/25 09:51:16;;;;;;;6.20;2.75;;;;;;;22.33;48.71;101569.31;5086861;28;20051;-51
2023/09/25 09:53:44;;;;;;;8.77;2.38;;;;;;;22.35;48.69;101566.97;5082639;28;20048;-52
2023/09/25 09:56:14;;;;;;;7.70;3.38;;;;;;;22.34;48.52;101573.78;5067845;28;20059;-55
2023/09/25 09:58:41;;;;;;;7.18;2.70;;;;;;;22.38;48.34;101568.22;5089785;28;20044;-54
2023/09/25 10:01:08;;;;;;;8.25;2.80;;;;;;;22.33;48.64;101568.53;5055977;28;20430;-55
2023/09/25 10:03:36;;;;;;;6.55;2.80;;;;;;;22.34;48.67;101570.16;5093291;28;20044;-52
2023/09/25 10:06:05;;;;;;;9.25;3.40;;;;;;;22.25;48.74;101576.00;5065889;28;20166;-50
2023/09/25 10:08:34;;;;;;;7.45;3.10;;;;;;;22.26;49.08;101577.59;5069522;28;20055;-54
2023/09/25 10:11:23;;;;;;;7.37;2.87;;;;;;;22.29;48.75;101587.28;5085015;28;20048;-52
2023/09/25 10:14:01;;;;;;;8.93;2.97;;;;;;;22.30;48.61;101581.31;5082314;28;20055;-57
2023/09/25 10:16:32;;;;;;;11.93;3.33;;;;;;;22.32;48.69;101581.75;5068614;28;20071;-49
2023/09/25 10:19:00;;;;;;;10.43;3.30;;;;;;;22.35;49.13;101575.38;5086393;28;20544;-48
2023/09/25 10:21:28;;;;;;;11.10;3.47;;;;;;;22.40;49.18;101574.28;5070535;28;20528;-47
2023/09/25 10:23:56;;;;;;;15.55;3.28;;;;;;;22.27;49.41;101573.63;5091755;28;20075;-47
2023/09/25 10:26:25;;;;;;;17.38;3.42;;;;;;;22.21;49.52;101566.69;5085197;28;20049;-48
2023/09/25 10:29:12;;;;;;;15.05;3.88;;;;;;;22.00;49.91;101571.88;5082175;28;20040;-45
2023/09/25 10:31:45;;;;;;;14.95;6.20;;;;;;;21.28;53.42;101583.88;5088300;28;20044;-39
2023/09/25 10:34:12;;;;;;;15.02;6.03;;;;;;;21.11;54.98;101570.25;5074002;28;20051;-39
2023/09/25 10:36:42;;;;;;;8.93;3.58;;;;;;;20.59;57.66;101580.91;5081877;28;20330;-49
2023/09/25 10:39:14;;;;;;;10.70;4.10;;;;;;;21.75;53.90;101566.91;5091096;28;20040;-44
2023/09/25 10:41:42;;;;;;;19.02;4.38;;;;;;;22.03;53.21;101575.94;5070543;28;20079;-39
2023/09/25 10:44:11;;;;;;;14.98;4.45;;;;;;;22.07;52.71;101560.00;5085121;28;20048;-41
2023/09/25 10:46:39;;;;;;;13.65;3.85;;;;;;;22.20;52.32;101562.28;5058137;28;20048;-48
2023/09/25 10:49:08;;;;;;;18.60;4.15;;;;;;;22.11;54.06;101558.88;5077052;28;20442;-44
2023/09/25 10:51:36;;;;;;;20.83;5.05;;;;;;;21.42;55.18;101558.16;5107812;28;20051;-44
2023/09/25 10:54:03;;;;;;;13.25;5.45;;;;;;;21.78;55.53;101554.97;5090783;28;20051;-45
2023/09/25 10:56:32;;;;;;;17.27;4.05;;;;;;;21.95;54.57;101552.53;5071284;28;20074;-42
2023/09/25 10:59:00;;;;;;;14.98;4.45;;;;;;;21.74;55.46;101552.06;5065621;28;20044;-51
2023/09/25 11:01:35;;;;;;;9.95;3.80;;;;;;;21.73;57.21;101561.66;5074662;28;20078;-52
2023/09/25 11:04:03;;;;;;;10.23;4.30;;;;;;;21.76;56.63;101562.94;5086059;28;20147;-54
2023/09/25 11:06:31;;;;;;;11.00;4.65;;;;;;;21.48;58.00;101576.34;5089929;28;20106;-50
2023/09/25 11:09:05;;;;;;;8.80;4.15;;;;;;;21.99;55.60;101572.25;5089775;28;20043;-52
2023/09/25 11:11:33;;;;;;;10.75;4.60;;;;;;;22.04;55.48;101574.75;5090800;28;20059;-54
2023/09/25 11:14:01;;;;;;;10.05;3.22;;;;;;;22.10;55.89;101576.91;5088146;28;20052;-49
2023/09/25 11:16:29;;;;;;;12.98;4.93;;;;;;;22.10;55.82;101571.31;5087693;28;20048;-53
2023/09/25 11:19:14;;;;;;;16.50;9.75;;;;;;;22.00;56.33;101573.88;5084884;28;20043;-53
2023/09/25 11:21:46;;;;;;;17.15;6.68;;;;;;;21.70;56.78;101578.41;5071880;28;20055;-51
2023/09/25 11:24:13;;;;;;;14.23;5.40;;;;;;;21.49;57.79;101578.75;5086747;28;20052;-50
2023/09/25 11:26:42;;;;;;;15.93;4.63;;;;;;;21.52;57.32;101580.00;5089221;28;20051;-50
2023/09/25 11:29:11;;;;;;;11.93;3.97;;;;;;;21.30;58.22;101580.72;5091263;28;20047;-56
2023/09/25 11:31:39;;;;;;;13.18;4.95;;;;;;;21.56;57.19;101586.53;5093742;28;20043;-53
2023/09/25 11:34:10;;;;;;;17.67;4.20;;;;;;;21.31;58.42;101591.56;5092191;28;20043;-53